Time;durP1;ratioP1;P1;durP2;ratioP2;P2;SDS_P1;SDS_P2;PMS_P1;PMS_P2;Temp;Humidity;BMP_temperature;BMP_pressure;BME280_temperature;BME280_humidity;BME280_pressure;Samples;Min_cycle;Max_cycle;Signal;HPM_P1;HPM_P2
2023/06/12 00:00:54;;;;;;;3.92;2.20;;;;;;;;;;5023318;28;20081;-78
2023/06/12 00:03:25;;;;;;;6.53;3.17;;;;;;;;;;5024177;28;20033;-78
2023/06/12 00:05:51;;;;;;;6.75;2.78;;;;;;;;;;5023032;28;20069;-78
2023/06/12 00:08:17;;;;;;;6.68;2.78;;;;;;;;;;5023028;28;20033;-75
2023/06/12 00:10:44;;;;;;;5.00;2.60;;;;;;;;;;5018903;28;20087;-77
2023/06/12 00:13:11;;;;;;;8.00;2.85;;;;;;;;;;5018998;28;20030;-76
2023/06/12 00:15:37;;;;;;;8.13;2.90;;;;;;;;;;5020541;28;20029;-79
2023/06/12 00:18:04;;;;;;;4.72;2.45;;;;;;;;;;5019227;28;20521;-75
2023/06/12 00:20:33;;;;;;;11.60;2.63;;;;;;;;;;5023155;28;20043;-76
2023/06/12 00:23:00;;;;;;;4.40;2.45;;;;;;;;;;5025042;28;20120;-77
2023/06/12 00:25:26;;;;;;;11.93;2.40;;;;;;;;;;5020756;28;20025;-77
2023/06/12 00:27:53;;;;;;;6.28;2.20;;;;;;;;;;5023725;28;20387;-78
2023/06/12 00:30:19;;;;;;;4.75;2.22;;;;;;;;;;5023217;28;20041;-78
2023/06/12 00:32:45;;;;;;;9.80;2.97;;;;;;;;;;5023746;28;20037;-77
2023/06/12 00:35:11;;;;;;;4.75;2.25;;;;;;;;;;5021089;28;20034;-77
2023/06/12 00:37:41;;;;;;;6.82;2.50;;;;;;;;;;5024288;28;20030;-78
2023/06/12 00:40:07;;;;;;;6.78;2.53;;;;;;;;;;5023241;28;20429;-77
2023/06/12 00:42:34;;;;;;;3.17;2.22;;;;;;;;;;5030248;28;20057;-78
2023/06/12 00:45:00;;;;;;;6.97;2.33;;;;;;;;;;5028347;28;20108;-78
2023/06/12 00:47:26;;;;;;;4.65;2.35;;;;;;;;;;5024149;28;20113;-78
2023/06/12 00:49:52;;;;;;;8.60;2.80;;;;;;;;;;5025706;28;20080;-77
2023/06/12 00:52:20;;;;;;;10.60;2.88;;;;;;;;;;5029788;28;20030;-78
2023/06/12 00:54:46;;;;;;;7.35;2.40;;;;;;;;;;5025855;28;20110;-76
2023/06/12 00:57:12;;;;;;;4.20;2.70;;;;;;;;;;5024993;28;20068;-78
2023/06/12 00:59:39;;;;;;;6.35;2.38;;;;;;;;;;5028446;28;20067;-80
2023/06/12 01:02:06;;;;;;;3.65;2.40;;;;;;;;;;5024910;28;20171;-79
2023/06/12 01:04:33;;;;;;;4.35;2.17;;;;;;;;;;5025095;28;20529;-78
2023/06/12 01:07:06;;;;;;;6.20;2.45;;;;;;;;;;5022059;28;20057;-78
2023/06/12 01:09:48;;;;;;;5.95;2.13;;;;;;;;;;5025103;28;20021;-75
2023/06/12 01:12:16;;;;;;;4.68;2.35;;;;;;;;;;5023769;28;20029;-78
2023/06/12 01:14:47;;;;;;;3.17;2.05;;;;;;;;;;5023636;28;20120;-78
2023/06/12 01:17:14;;;;;;;11.35;2.63;;;;;;;;;;5021971;28;20042;-75
2023/06/12 01:19:41;;;;;;;4.80;2.33;;;;;;;;;;5028966;28;20052;-77
2023/06/12 01:22:10;;;;;;;6.80;2.60;;;;;;;;;;5022020;28;20030;-79
2023/06/12 01:25:01;;;;;;;6.32;2.22;;;;;;;;;;5027615;28;20028;-78
2023/06/12 01:27:33;;;;;;;4.03;2.07;;;;;;;;;;5038783;28;20068;-77
2023/06/12 01:29:59;;;;;;;;;;;;;;;;;;5027605;28;20072;-79
2023/06/12 01:32:26;;;;;;;4.65;1.90;;;;;;;;;;5026089;28;19948;-78
2023/06/12 01:34:58;;;;;;;3.72;1.92;;;;;;;;;;5025930;28;20076;-79
2023/06/12 01:37:43;;;;;;;4.45;2.22;;;;;;;;;;5024703;28;20033;-78
2023/06/12 01:40:13;;;;;;;7.13;2.33;;;;;;;;;;5023867;28;20127;-79
2023/06/12 01:42:40;;;;;;;4.38;2.08;;;;;;;;;;5022688;28;20034;-78
2023/06/12 01:45:06;;;;;;;2.75;2.10;;;;;;;;;;5021297;28;20443;-78
2023/06/12 01:47:32;;;;;;;6.78;2.10;;;;;;;;;;5024644;28;20112;-77
2023/06/12 01:49:59;;;;;;;8.02;2.33;;;;;;;;;;5021664;28;20550;-77
2023/06/12 01:52:26;;;;;;;5.72;1.85;;;;;;;;;;5018782;28;20356;-77
2023/06/12 01:54:52;;;;;;;4.93;2.10;;;;;;;;;;5026486;28;20021;-78
2023/06/12 01:57:21;;;;;;;5.18;2.33;;;;;;;;;;5018728;28;20022;-78
2023/06/12 01:59:48;;;;;;;3.90;2.22;;;;;;;;;;5020632;28;20034;-79
2023/06/12 02:02:14;;;;;;;10.38;2.00;;;;;;;;;;5023705;28;20044;-78
2023/06/12 02:04:40;;;;;;;5.00;2.35;;;;;;;;;;5022917;28;20041;-78
2023/06/12 02:07:08;;;;;;;7.35;2.25;;;;;;;;;;5025900;28;20482;-76
2023/06/12 02:09:34;;;;;;;5.10;2.90;;;;;;;;;;5021635;28;20116;-79
2023/06/12 02:12:01;;;;;;;6.88;2.42;;;;;;;;;;5023318;28;20026;-78
2023/06/12 02:14:30;;;;;;;6.40;2.38;;;;;;;;;;5021192;28;20030;-77
2023/06/12 02:16:56;;;;;;;8.60;2.35;;;;;;;;;;5020871;28;20051;-74
2023/06/12 02:19:22;;;;;;;6.80;3.80;;;;;;;;;;5019021;28;20038;-77
2023/06/12 02:21:49;;;;;;;5.65;2.20;;;;;;;;;;5024329;28;20034;-79
2023/06/12 02:24:16;;;;;;;6.22;2.22;;;;;;;;;;5025094;28;20072;-78
2023/06/12 02:26:42;;;;;;;6.22;2.85;;;;;;;;;;5024417;28;20025;-79
2023/06/12 02:29:14;;;;;;;12.63;2.58;;;;;;;;;;5023085;28;20029;-77
2023/06/12 02:31:40;;;;;;;;;;;;;;;;;;5021792;28;20025;-78
2023/06/12 02:34:06;;;;;;;5.50;2.00;;;;;;;;;;5023603;28;19955;-79
2023/06/12 02:36:40;;;;;;;9.32;2.20;;;;;;;;;;5026418;28;21588;-77
2023/06/12 02:39:07;;;;;;;5.25;2.50;;;;;;;;;;5022124;28;20071;-78
2023/06/12 02:41:33;;;;;;;7.95;2.30;;;;;;;;;;5019747;28;20029;-78
2023/06/12 02:43:59;;;;;;;7.70;3.42;;;;;;;;;;5022352;28;20073;-74
2023/06/12 02:46:25;;;;;;;9.00;2.15;;;;;;;;;;5023017;28;20420;-78
2023/06/12 02:48:51;;;;;;;4.40;2.22;;;;;;;;;;5025408;28;20029;-74
2023/06/12 02:51:17;;;;;;;3.30;2.00;;;;;;;;;;5026329;28;20649;-77
2023/06/12 02:53:43;;;;;;;5.88;2.20;;;;;;;;;;5022371;28;20448;-78
2023/06/12 02:56:09;;;;;;;6.35;2.13;;;;;;;;;;5022399;28;20045;-78
2023/06/12 02:58:35;;;;;;;7.80;2.60;;;;;;;;;;5023155;28;20029;-79
2023/06/12 03:01:04;;;;;;;5.38;2.35;;;;;;;;;;5021721;28;20280;-77
2023/06/12 03:03:30;;;;;;;4.95;2.35;;;;;;;;;;5035420;28;20049;-75
2023/06/12 03:05:56;;;;;;;5.57;2.22;;;;;;;;;;5021408;28;20476;-75
2023/06/12 03:08:22;;;;;;;6.90;3.05;;;;;;;;;;5020951;28;20021;-78
2023/06/12 03:10:48;;;;;;;5.25;2.17;;;;;;;;;;5021006;28;20040;-77
2023/06/12 03:13:14;;;;;;;3.72;2.80;;;;;;;;;;5021438;28;20034;-78
2023/06/12 03:15:40;;;;;;;7.15;2.35;;;;;;;;;;5024763;28;20029;-78
2023/06/12 03:18:06;;;;;;;3.03;2.15;;;;;;;;;;5017660;28;20034;-77
2023/06/12 03:20:33;;;;;;;9.82;2.20;;;;;;;;;;5019456;28;20041;-78
2023/06/12 03:22:59;;;;;;;6.32;3.10;;;;;;;;;;5027342;28;20029;-77
2023/06/12 03:25:26;;;;;;;6.95;2.65;;;;;;;;;;5024639;28;20026;-84
2023/06/12 03:27:52;;;;;;;9.00;3.53;;;;;;;;;;5025382;28;20026;-84
2023/06/12 03:30:18;;;;;;;10.88;2.80;;;;;;;;;;5010792;28;21635;-82
2023/06/12 03:32:44;;;;;;;11.88;2.90;;;;;;;;;;5011750;28;20054;-77
2023/06/12 03:35:10;;;;;;;4.70;2.42;;;;;;;;;;5003705;28;20029;-73
2023/06/12 03:37:36;;;;;;;12.25;5.38;;;;;;;;;;5012859;28;20042;-78
2023/06/12 03:40:03;;;;;;;6.00;3.75;;;;;;;;;;5026236;28;20086;-79
2023/06/12 03:42:29;;;;;;;11.23;4.45;;;;;;;;;;5018121;28;20045;-81
2023/06/12 03:44:55;;;;;;;7.35;2.85;;;;;;;;;;5023702;28;20053;-86
2023/06/12 03:47:21;;;;;;;5.28;2.47;;;;;;;;;;5023001;28;20384;-84
2023/06/12 03:49:47;;;;;;;14.50;3.40;;;;;;;;;;5023846;28;20041;-88
2023/06/12 03:52:14;;;;;;;6.07;2.47;;;;;;;;;;5024596;28;20051;-84
2023/06/12 03:54:40;;;;;;;4.90;2.17;;;;;;;;;;5027052;28;20029;-76
2023/06/12 03:57:06;;;;;;;12.75;2.30;;;;;;;;;;5029871;28;20033;-85
2023/06/12 03:59:33;;;;;;;6.40;2.40;;;;;;;;;;5026656;28;20152;-83
2023/06/12 04:01:59;;;;;;;7.45;2.20;;;;;;;;;;5024514;28;20277;-81
2023/06/12 04:04:25;;;;;;;7.68;2.60;;;;;;;;;;5024208;28;20528;-76
2023/06/12 04:06:52;;;;;;;4.82;2.60;;;;;;;;;;5031094;28;20073;-83
2023/06/12 04:09:19;;;;;;;16.25;7.90;;;;;;;;;;5028624;28;20033;-85
2023/06/12 04:11:46;;;;;;;11.63;4.93;;;;;;;;;;5025766;28;20113;-87
2023/06/12 04:14:12;;;;;;;9.10;2.92;;;;;;;;;;5025126;28;20430;-85
2023/06/12 04:16:38;;;;;;;10.23;2.90;;;;;;;;;;5020878;28;20034;-81
2023/06/12 04:19:05;;;;;;;7.57;2.40;;;;;;;;;;5023895;28;20148;-76
2023/06/12 04:21:32;;;;;;;5.65;2.55;;;;;;;;;;5021983;28;20486;-75
2023/06/12 04:24:00;;;;;;;6.93;3.05;;;;;;;;;;5022872;28;20028;-77
2023/06/12 04:26:27;;;;;;;7.63;4.03;;;;;;;;;;5029471;28;20116;-76
2023/06/12 04:28:54;;;;;;;15.52;7.45;;;;;;;;;;5028945;28;20036;-75
2023/06/12 04:31:20;;;;;;;8.77;4.70;;;;;;;;;;5025771;28;20045;-77
2023/06/12 04:33:51;;;;;;;4.30;2.50;;;;;;;;;;5019685;28;20428;-78
2023/06/12 04:36:17;;;;;;;6.75;3.00;;;;;;;;;;5020892;28;20382;-77
2023/06/12 04:38:44;;;;;;;10.35;2.25;;;;;;;;;;5029930;28;20025;-80
2023/06/12 04:41:11;;;;;;;9.20;2.20;;;;;;;;;;5025384;28;20061;-78
2023/06/12 04:43:37;;;;;;;7.93;2.80;;;;;;;;;;5021404;28;20103;-77
2023/06/12 04:46:05;;;;;;;9.50;2.72;;;;;;;;;;5018715;28;20151;-78
2023/06/12 04:48:31;;;;;;;10.68;2.47;;;;;;;;;;5021599;28;20382;-81
2023/06/12 04:50:58;;;;;;;10.98;3.35;;;;;;;;;;5022246;28;20188;-80
2023/06/12 04:53:30;;;;;;;6.13;2.42;;;;;;;;;;5020880;28;20723;-77
2023/06/12 04:55:56;;;;;;;4.82;2.50;;;;;;;;;;5024008;28;20033;-80
2023/06/12 04:58:22;;;;;;;5.93;2.25;;;;;;;;;;5023183;28;20036;-81
2023/06/12 05:00:49;;;;;;;8.98;2.67;;;;;;;;;;5020707;28;20029;-81
2023/06/12 05:03:16;;;;;;;6.65;2.70;;;;;;;;;;5019258;28;20045;-78
2023/06/12 05:05:42;;;;;;;5.55;2.58;;;;;;;;;;5019590;28;20045;-78
2023/06/12 05:08:08;;;;;;;7.35;2.67;;;;;;;;;;5023818;28;20083;-79
2023/06/12 05:10:34;;;;;;;5.95;2.97;;;;;;;;;;5023151;28;20304;-79
2023/06/12 05:13:02;;;;;;;12.45;3.08;;;;;;;;;;5023496;28;20403;-77
2023/06/12 05:15:28;;;;;;;6.75;2.53;;;;;;;;;;5020901;28;20383;-79
2023/06/12 05:17:54;;;;;;;6.15;2.63;;;;;;;;;;5024071;28;20486;-81
2023/06/12 05:20:21;;;;;;;7.43;2.58;;;;;;;;;;5019652;28;20033;-81
2023/06/12 05:22:47;;;;;;;8.00;3.40;;;;;;;;;;5024098;28;20047;-77
2023/06/12 05:25:13;;;;;;;10.70;2.88;;;;;;;;;;5022340;28;20042;-80
2023/06/12 05:27:39;;;;;;;6.40;2.65;;;;;;;;;;5024235;28;20033;-81
2023/06/12 05:30:06;;;;;;;7.72;2.83;;;;;;;;;;5026375;28;20048;-81
2023/06/12 05:32:33;;;;;;;10.57;2.60;;;;;;;;;;5023306;28;20625;-80
2023/06/12 05:34:59;;;;;;;17.08;2.58;;;;;;;;;;5025540;28;20037;-78
2023/06/12 05:37:25;;;;;;;11.30;2.70;;;;;;;;;;5025455;28;20466;-81
2023/06/12 05:39:53;;;;;;;7.55;2.58;;;;;;;;;;5027084;28;20045;-83
2023/06/12 05:42:19;;;;;;;6.68;2.80;;;;;;;;;;5027358;28;20044;-81
2023/06/12 05:44:48;;;;;;;8.38;2.88;;;;;;;;;;5025010;28;20107;-81
2023/06/12 05:47:15;;;;;;;6.20;2.85;;;;;;;;;;5025177;28;20053;-81
2023/06/12 05:49:41;;;;;;;5.53;2.67;;;;;;;;;;5025392;28;20022;-81
2023/06/12 05:52:07;;;;;;;13.07;3.15;;;;;;;;;;5025160;28;20484;-81
2023/06/12 05:54:36;;;;;;;10.68;2.72;;;;;;;;;;5025821;28;20026;-81
2023/06/12 05:57:02;;;;;;;9.00;3.28;;;;;;;;;;5026421;28;20029;-82
2023/06/12 05:59:28;;;;;;;6.90;2.80;;;;;;;;;;5026035;28;20029;-83
2023/06/12 06:01:58;;;;;;;8.95;2.78;;;;;;;;;;5024502;28;20533;-82
2023/06/12 06:04:24;;;;;;;11.02;2.60;;;;;;;;;;5026176;28;20064;-79
2023/06/12 06:06:52;;;;;;;8.43;2.65;;;;;;;;;;5021344;28;20021;-77
2023/06/12 06:09:18;;;;;;;8.07;2.63;;;;;;;;;;5026133;28;20034;-76
2023/06/12 06:11:44;;;;;;;12.82;3.30;;;;;;;;;;5026534;28;20037;-81
2023/06/12 06:14:10;;;;;;;9.95;3.38;;;;;;;;;;5026253;28;20045;-77
2023/06/12 06:16:36;;;;;;;9.15;3.38;;;;;;;;;;5024242;28;20445;-81
2023/06/12 06:19:02;;;;;;;5.40;3.35;;;;;;;;;;5024705;28;20193;-79
2023/06/12 06:21:29;;;;;;;11.18;3.13;;;;;;;;;;5025422;28;20067;-82
2023/06/12 06:23:56;;;;;;;4.85;3.13;;;;;;;;;;5025918;28;20037;-80
2023/06/12 06:26:22;;;;;;;8.40;2.95;;;;;;;;;;5023750;28;20116;-80
2023/06/12 06:28:48;;;;;;;5.40;2.30;;;;;;;;;;5023694;28;20029;-80
2023/06/12 06:31:14;;;;;;;8.85;2.65;;;;;;;;;;5021011;28;20053;-76
2023/06/12 06:33:40;;;;;;;5.72;2.78;;;;;;;;;;5012121;28;20402;-84
2023/06/12 06:36:07;;;;;;;6.60;2.58;;;;;;;;;;5013497;28;20479;-88
2023/06/12 06:38:33;;;;;;;7.03;2.58;;;;;;;;;;5019358;28;20033;-84
2023/06/12 06:41:00;;;;;;;10.55;2.85;;;;;;;;;;5010880;28;20388;-79
2023/06/12 06:43:26;;;;;;;10.07;2.40;;;;;;;;;;5012842;28;20238;-80
2023/06/12 06:45:52;;;;;;;7.18;2.40;;;;;;;;;;5010578;28;20079;-86
2023/06/12 06:48:18;;;;;;;7.18;2.55;;;;;;;;;;5019328;28;20123;-88
2023/06/12 06:50:44;;;;;;;9.02;3.40;;;;;;;;;;5031479;28;20048;-86
2023/06/12 06:53:10;;;;;;;11.27;2.63;;;;;;;;;;5030704;28;20437;-85
2023/06/12 06:55:37;;;;;;;9.63;2.58;;;;;;;;;;5022611;28;20034;-83
2023/06/12 06:58:03;;;;;;;18.25;11.82;;;;;;;;;;5042252;28;20432;-81
2023/06/12 07:00:29;;;;;;;13.80;4.72;;;;;;;;;;5025937;28;20064;-86
2023/06/12 07:02:55;;;;;;;5.95;2.83;;;;;;;;;;5031777;28;20112;-78
2023/06/12 07:05:21;;;;;;;8.07;2.70;;;;;;;;;;5031979;28;20064;-76
2023/06/12 07:07:48;;;;;;;8.15;2.78;;;;;;;;;;5029169;28;20021;-75
2023/06/12 07:10:15;;;;;;;6.68;2.50;;;;;;;;;;5030086;28;20044;-78
2023/06/12 07:12:41;;;;;;;4.18;2.95;;;;;;;;;;5030679;28;20467;-76
2023/06/12 07:15:08;;;;;;;8.30;2.65;;;;;;;;;;5030450;28;20033;-76
2023/06/12 07:17:34;;;;;;;11.02;4.55;;;;;;;;;;5022105;28;20100;-76
2023/06/12 07:20:00;;;;;;;11.00;3.53;;;;;;;;;;5016384;28;20402;-77
2023/06/12 07:22:29;;;;;;;6.10;3.10;;;;;;;;;;5009815;28;20038;-75
2023/06/12 07:24:55;;;;;;;5.13;2.90;;;;;;;;;;5011173;28;20428;-72
2023/06/12 07:27:21;;;;;;;9.80;3.00;;;;;;;;;;5021986;28;20033;-73
2023/06/12 07:29:47;;;;;;;7.43;2.80;;;;;;;;;;5019900;28;20441;-71
2023/06/12 07:32:13;;;;;;;6.80;3.17;;;;;;;;;;5020277;28;20067;-72
2023/06/12 07:34:39;;;;;;;9.07;3.67;;;;;;;;;;5016743;28;20296;-73
2023/06/12 07:37:07;;;;;;;4.28;2.60;;;;;;;;;;5016614;28;20037;-73
2023/06/12 07:39:33;;;;;;;4.88;2.50;;;;;;;;;;5015660;28;20035;-73
2023/06/12 07:41:59;;;;;;;9.00;2.83;;;;;;;;;;5011203;28;20143;-73
2023/06/12 07:44:25;;;;;;;5.22;2.78;;;;;;;;;;5009435;28;20481;-73
2023/06/12 07:46:51;;;;;;;8.63;3.30;;;;;;;;;;5011173;28;20434;-73
2023/06/12 07:49:18;;;;;;;5.43;3.10;;;;;;;;;;5020951;28;20127;-73
2023/06/12 07:51:44;;;;;;;4.82;2.67;;;;;;;;;;5021089;28;20063;-73
2023/06/12 07:54:12;;;;;;;9.65;2.97;;;;;;;;;;5017594;28;20487;-75
2023/06/12 07:56:38;;;;;;;10.25;7.57;;;;;;;;;;5021829;28;20028;-76
2023/06/12 07:59:12;;;;;;;16.50;7.25;;;;;;;;;;5037459;28;20159;-72
2023/06/12 08:01:38;;;;;;;13.35;8.98;;;;;;;;;;5029711;28;20046;-72
2023/06/12 08:04:09;;;;;;;5.00;2.90;;;;;;;;;;5026413;28;20033;-73
2023/06/12 08:06:35;;;;;;;7.72;2.72;;;;;;;;;;5023140;28;20395;-73
2023/06/12 08:09:01;;;;;;;6.88;2.92;;;;;;;;;;5019076;28;20030;-75
2023/06/12 08:11:27;;;;;;;6.18;2.85;;;;;;;;;;5022517;28;20041;-75
2023/06/12 08:13:54;;;;;;;4.43;2.92;;;;;;;;;;5019942;28;20839;-74
2023/06/12 08:16:20;;;;;;;9.65;3.10;;;;;;;;;;5023141;28;20083;-75
2023/06/12 08:18:47;;;;;;;6.63;2.83;;;;;;;;;;5021765;28;20049;-75
2023/06/12 08:21:13;;;;;;;5.72;2.88;;;;;;;;;;5018378;28;20042;-75
2023/06/12 08:23:39;;;;;;;8.80;2.72;;;;;;;;;;5025098;28;20044;-75
2023/06/12 08:26:05;;;;;;;5.93;2.55;;;;;;;;;;5022687;28;20033;-75
2023/06/12 08:28:33;;;;;;;8.52;2.60;;;;;;;;;;5023289;28;20132;-75
2023/06/12 08:30:59;;;;;;;7.10;3.13;;;;;;;;;;5022694;28;20065;-75
2023/06/12 08:33:25;;;;;;;8.57;3.40;;;;;;;;;;5022017;28;20123;-76
2023/06/12 08:35:51;;;;;;;2.88;2.25;;;;;;;;;;5021599;28;20049;-75
2023/06/12 08:38:17;;;;;;;3.80;2.60;;;;;;;;;;5025057;28;20033;-75
2023/06/12 08:40:44;;;;;;;7.80;3.05;;;;;;;;;;5019721;28;20373;-75
2023/06/12 08:43:10;;;;;;;8.32;3.15;;;;;;;;;;5026942;28;20041;-75
2023/06/12 08:45:38;;;;;;;4.90;2.75;;;;;;;;;;5023202;28;20025;-75
2023/06/12 08:48:05;;;;;;;9.75;2.50;;;;;;;;;;5021995;28;20037;-75
2023/06/12 08:50:32;;;;;;;5.50;2.78;;;;;;;;;;5023738;28;20037;-75
2023/06/12 08:52:58;;;;;;;10.75;2.65;;;;;;;;;;5023907;28;20053;-75
2023/06/12 08:55:25;;;;;;;5.30;2.40;;;;;;;;;;5019926;28;20465;-75
2023/06/12 08:57:51;;;;;;;4.20;2.38;;;;;;;;;;5020909;28;20108;-76
2023/06/12 09:00:17;;;;;;;5.05;2.58;;;;;;;;;;5019635;28;20065;-76
2023/06/12 09:02:50;;;;;;;7.70;2.20;;;;;;;;;;5026397;28;20112;-76
2023/06/12 09:05:37;;;;;;;3.53;2.28;;;;;;;;;;5028408;28;20045;-75
2023/06/12 09:08:06;;;;;;;7.38;2.40;;;;;;;;;;5023110;28;20025;-75
2023/06/12 09:10:32;;;;;;;4.60;2.35;;;;;;;;;;5022536;28;20041;-75
2023/06/12 09:12:59;;;;;;;4.95;2.35;;;;;;;;;;5032440;28;20061;-76
2023/06/12 09:15:26;;;;;;;7.38;2.60;;;;;;;;;;5023113;28;20040;-76
2023/06/12 09:17:56;;;;;;;6.07;2.40;;;;;;;;;;5025768;28;20060;-76
2023/06/12 09:20:33;;;;;;;5.53;2.50;;;;;;;;;;5024550;28;20045;-76
2023/06/12 09:23:00;;;;;;;7.13;2.88;;;;;;;;;;5026234;28;20330;-73
2023/06/12 09:25:39;;;;;;;5.97;3.00;;;;;;;;;;5024569;28;20028;-75
2023/06/12 09:28:07;;;;;;;7.78;2.78;;;;;;;;;;5025224;28;20029;-76
2023/06/12 09:30:38;;;;;;;8.02;3.20;;;;;;;;;;5025681;28;20136;-76
2023/06/12 09:33:05;;;;;;;5.90;2.43;;;;;;;;;;5023274;28;20032;-74
2023/06/12 09:35:31;;;;;;;8.90;2.55;;;;;;;;;;5023528;28;20298;-76
2023/06/12 09:37:57;;;;;;;6.93;3.13;;;;;;;;;;5026903;28;20075;-76
2023/06/12 09:40:24;;;;;;;4.15;2.33;;;;;;;;;;5027093;28;20037;-76
2023/06/12 09:42:50;;;;;;;6.85;2.35;;;;;;;;;;5025765;28;20067;-76
2023/06/12 09:45:18;;;;;;;6.28;2.95;;;;;;;;;;5018834;28;20458;-75
2023/06/12 09:47:48;;;;;;;11.40;2.75;;;;;;;;;;5026880;28;20071;-76
2023/06/12 09:50:15;;;;;;;4.97;2.33;;;;;;;;;;5026484;28;20045;-76
2023/06/12 09:52:42;;;;;;;4.10;2.45;;;;;;;;;;5025581;28;20038;-75
2023/06/12 09:55:10;;;;;;;5.15;2.28;;;;;;;;;;5019792;28;20470;-76
2023/06/12 09:57:38;;;;;;;8.68;2.80;;;;;;;;;;5025177;28;20482;-79
2023/06/12 10:00:11;;;;;;;6.25;2.25;;;;;;;;;;5024706;28;20042;-80
2023/06/12 10:02:41;;;;;;;5.05;2.72;;;;;;;;;;5028254;28;20039;-80
2023/06/12 10:05:11;;;;;;;3.60;2.15;;;;;;;;;;5022441;28;20129;-79
2023/06/12 10:07:52;;;;;;;4.93;2.73;;;;;;;;;;5030838;28;20037;-79
2023/06/12 10:10:18;;;;;;;7.53;2.55;;;;;;;;;;5017823;28;20026;-79
2023/06/12 10:12:45;;;;;;;2.60;2.00;;;;;;;;;;5030976;28;20033;-80
2023/06/12 10:15:12;;;;;;;3.90;2.40;;;;;;;;;;5019080;28;20084;-79
2023/06/12 10:17:43;;;;;;;5.50;2.80;;;;;;;;;;5020560;28;20032;-78
2023/06/12 10:20:10;;;;;;;5.38;2.80;;;;;;;;;;5023054;28;20041;-79
2023/06/12 10:22:36;;;;;;;5.43;2.53;;;;;;;;;;5024093;28;20056;-78
2023/06/12 10:25:03;;;;;;;6.80;2.53;;;;;;;;;;5023293;28;20037;-77
2023/06/12 10:27:29;;;;;;;7.13;2.50;;;;;;;;;;5022419;28;20064;-80
2023/06/12 10:29:56;;;;;;;5.70;2.60;;;;;;;;;;5024231;28;20113;-79
2023/06/12 10:32:23;;;;;;;3.95;2.55;;;;;;;;;;5026544;28;20522;-80
2023/06/12 10:34:53;;;;;;;4.10;2.45;;;;;;;;;;5022791;28;20045;-78
2023/06/12 10:37:32;;;;;;;5.03;2.92;;;;;;;;;;5023979;28;20499;-85
2023/06/12 10:40:12;;;;;;;6.25;2.75;;;;;;;;;;5022879;28;20069;-80
2023/06/12 10:42:54;;;;;;;4.43;2.13;;;;;;;;;;5024112;28;20044;-79
2023/06/12 10:45:23;;;;;;;7.68;2.17;;;;;;;;;;5025002;28;20041;-81
2023/06/12 10:48:04;;;;;;;2.95;2.50;;;;;;;;;;5025509;28;20022;-79
2023/06/12 10:50:38;;;;;;;2.65;2.22;;;;;;;;;;5024357;28;20924;-81
2023/06/12 10:53:05;;;;;;;3.45;2.30;;;;;;;;;;5023610;28;20117;-80
2023/06/12 10:55:35;;;;;;;4.75;2.75;;;;;;;;;;5038252;28;20356;-79
2023/06/12 10:58:05;;;;;;;6.60;2.42;;;;;;;;;;5024420;28;20415;-82
2023/06/12 11:00:38;;;;;;;7.30;2.80;;;;;;;;;;5022725;28;20044;-89
2023/06/12 11:03:05;;;;;;;3.85;2.40;;;;;;;;;;5026401;28;20034;-77
2023/06/12 11:05:32;;;;;;;2.78;2.33;;;;;;;;;;5031810;28;20049;-88
2023/06/12 11:07:59;;;;;;;4.20;2.05;;;;;;;;;;5032575;28;20025;-87
2023/06/12 11:10:26;;;;;;;4.30;2.72;;;;;;;;;;5025132;28;20017;-87
2023/06/12 11:12:52;;;;;;;3.90;2.20;;;;;;;;;;5019220;28;20482;-86
2023/06/12 11:15:18;;;;;;;4.60;2.50;;;;;;;;;;5025435;28;20033;-86
2023/06/12 11:17:44;;;;;;;3.78;2.53;;;;;;;;;;5023355;28;20705;-88
2023/06/12 11:20:11;;;;;;;7.88;2.55;;;;;;;;;;5020874;28;20502;-87
2023/06/12 11:22:37;;;;;;;5.85;2.80;;;;;;;;;;5022350;28;20038;-89
2023/06/12 11:25:04;;;;;;;6.22;2.53;;;;;;;;;;5023972;28;20101;-88
2023/06/12 11:27:30;;;;;;;2.80;2.47;;;;;;;;;;5027356;28;20029;-87
2023/06/12 11:29:56;;;;;;;4.45;2.10;;;;;;;;;;5021856;28;20029;-87
2023/06/12 11:32:23;;;;;;;2.90;2.60;;;;;;;;;;5023008;28;20040;-86
2023/06/12 11:34:51;;;;;;;6.07;2.80;;;;;;;;;;5015840;28;20025;-87
2023/06/12 11:37:25;;;;;;;8.30;2.40;;;;;;;;;;5018757;28;20391;-86
2023/06/12 11:40:06;;;;;;;7.22;3.72;;;;;;;;;;5023652;28;20033;-87
2023/06/12 11:42:32;;;;;;;9.52;3.10;;;;;;;;;;5026102;28;20052;-86
2023/06/12 11:44:58;;;;;;;3.67;2.50;;;;;;;;;;5012968;28;20022;-86
2023/06/12 11:47:24;;;;;;;5.18;2.67;;;;;;;;;;5031645;28;20061;-86
2023/06/12 11:49:50;;;;;;;4.82;2.47;;;;;;;;;;5031339;28;20277;-87
2023/06/12 11:52:16;;;;;;;3.13;2.80;;;;;;;;;;5034513;28;20108;-86
2023/06/12 11:55:04;;;;;;;4.90;2.72;;;;;;;;;;5032379;28;20451;-88
2023/06/12 11:57:30;;;;;;;4.22;2.78;;;;;;;;;;5028015;28;20499;-87
2023/06/12 11:59:57;;;;;;;8.82;3.13;;;;;;;;;;5033420;28;20079;-87
2023/06/12 12:02:29;;;;;;;7.32;2.90;;;;;;;;;;5033441;28;20056;-86
2023/06/12 12:04:55;;;;;;;5.60;3.17;;;;;;;;;;5030882;28;20379;-87
2023/06/12 12:07:21;;;;;;;5.65;2.20;;;;;;;;;;5031522;28;20030;-86
2023/06/12 12:09:47;;;;;;;4.43;2.97;;;;;;;;;;5045430;28;20031;-87
2023/06/12 12:12:15;;;;;;;9.57;2.70;;;;;;;;;;5036918;28;20021;-86
2023/06/12 12:14:50;;;;;;;2.50;2.30;;;;;;;;;;5024442;28;20044;-87
2023/06/12 12:17:17;;;;;;;3.50;2.88;;;;;;;;;;5028196;28;20357;-87
2023/06/12 12:19:44;;;;;;;4.93;2.85;;;;;;;;;;5020390;28;20491;-88
2023/06/12 12:22:10;;;;;;;6.25;3.15;;;;;;;;;;5022430;28;20038;-88
2023/06/12 12:24:36;;;;;;;8.35;3.20;;;;;;;;;;5027050;28;20057;-87
2023/06/12 12:27:03;;;;;;;3.70;3.25;;;;;;;;;;5033861;28;20030;-86
2023/06/12 12:29:32;;;;;;;4.45;2.70;;;;;;;;;;5032964;28;20033;-87
2023/06/12 12:31:58;;;;;;;3.95;2.75;;;;;;;;;;5029296;28;20482;-87
2023/06/12 12:34:26;;;;;;;5.45;3.05;;;;;;;;;;5031322;28;20034;-88
2023/06/12 12:36:52;;;;;;;5.80;3.08;;;;;;;;;;5032014;28;20033;-87
2023/06/12 12:39:18;;;;;;;5.50;3.13;;;;;;;;;;5022793;28;20049;-90
2023/06/12 12:41:44;;;;;;;4.25;3.20;;;;;;;;;;5017088;28;20045;-83
2023/06/12 12:44:10;;;;;;;7.63;3.63;;;;;;;;;;5023392;28;20044;-80
2023/06/12 12:46:37;;;;;;;3.97;3.15;;;;;;;;;;5025957;28;20107;-83
2023/06/12 12:49:03;;;;;;;3.53;3.22;;;;;;;;;;5022946;28;20035;-80
2023/06/12 12:51:29;;;;;;;3.45;3.15;;;;;;;;;;5027420;28;20096;-82
2023/06/12 12:53:56;;;;;;;6.90;5.38;;;;;;;;;;5023861;28;20037;-84
2023/06/12 12:56:22;;;;;;;4.22;3.55;;;;;;;;;;5033872;28;20030;-84
2023/06/12 12:58:49;;;;;;;8.73;3.75;;;;;;;;;;5032380;28;20133;-84
2023/06/12 13:01:15;;;;;;;5.18;3.38;;;;;;;;;;5035088;28;20034;-85
2023/06/12 13:03:41;;;;;;;4.93;3.97;;;;;;;;;;5035617;28;20038;-82
2023/06/12 13:06:10;;;;;;;8.52;3.60;;;;;;;;;;5023590;28;20053;-83
2023/06/12 13:08:36;;;;;;;4.00;3.42;;;;;;;;;;5032808;28;20033;-82
2023/06/12 13:11:03;;;;;;;4.72;3.65;;;;;;;;;;5031929;28;20084;-84
2023/06/12 13:13:29;;;;;;;4.88;3.70;;;;;;;;;;5033884;28;20030;-85
2023/06/12 13:15:55;;;;;;;5.50;3.60;;;;;;;;;;5031013;28;20048;-83
2023/06/12 13:18:21;;;;;;;7.95;3.63;;;;;;;;;;5030223;28;20026;-87
2023/06/12 13:20:47;;;;;;;4.50;3.47;;;;;;;;;;5033175;28;20045;-85
2023/06/12 13:23:14;;;;;;;5.43;3.55;;;;;;;;;;5034579;28;20472;-85
2023/06/12 13:25:40;;;;;;;8.07;3.95;;;;;;;;;;5034813;28;20033;-86
2023/06/12 13:28:06;;;;;;;5.85;3.65;;;;;;;;;;5031245;28;20026;-84
2023/06/12 13:30:32;;;;;;;4.30;3.65;;;;;;;;;;5034055;28;20083;-87
2023/06/12 13:32:58;;;;;;;5.40;4.40;;;;;;;;;;5038043;28;20033;-82
2023/06/12 13:35:25;;;;;;;5.07;4.10;;;;;;;;;;5027300;28;20277;-84
2023/06/12 13:37:51;;;;;;;6.63;3.95;;;;;;;;;;5020028;28;20026;-83
2023/06/12 13:40:17;;;;;;;7.28;4.00;;;;;;;;;;5024345;28;20049;-85
2023/06/12 13:42:44;;;;;;;6.15;3.70;;;;;;;;;;5039718;28;20037;-83
2023/06/12 13:45:11;;;;;;;5.03;3.70;;;;;;;;;;5024502;28;20064;-85
2023/06/12 13:47:37;;;;;;;6.60;4.65;;;;;;;;;;5024772;28;20037;-83
2023/06/12 13:50:05;;;;;;;5.35;4.10;;;;;;;;;;5019773;28;20036;-84
2023/06/12 13:52:31;;;;;;;5.47;3.72;;;;;;;;;;5018519;28;20065;-84
2023/06/12 13:54:57;;;;;;;5.70;4.22;;;;;;;;;;5025508;28;20134;-87
2023/06/12 13:57:23;;;;;;;7.75;4.35;;;;;;;;;;5027478;28;20029;-87
2023/06/12 13:59:49;;;;;;;5.95;3.90;;;;;;;;;;5027078;28;20033;-87
2023/06/12 14:02:15;;;;;;;4.45;4.00;;;;;;;;;;5025373;28;20044;-87
2023/06/12 14:04:41;;;;;;;5.07;3.97;;;;;;;;;;5025650;28;20995;-87
2023/06/12 14:07:08;;;;;;;5.47;3.92;;;;;;;;;;5027125;28;20037;-88
2023/06/12 14:09:34;;;;;;;5.20;4.57;;;;;;;;;;5023352;28;20037;-85
2023/06/12 14:12:00;;;;;;;8.57;4.55;;;;;;;;;;5027557;28;20068;-80
2023/06/12 14:14:26;;;;;;;5.45;4.22;;;;;;;;;;5025715;28;20033;-79
2023/06/12 14:16:52;;;;;;;4.45;3.78;;;;;;;;;;5032888;28;20402;-80
2023/06/12 14:19:18;;;;;;;5.10;4.03;;;;;;;;;;5032849;28;20076;-80
2023/06/12 14:21:44;;;;;;;7.05;4.40;;;;;;;;;;5029363;28;20036;-80
2023/06/12 14:24:10;;;;;;;4.68;3.80;;;;;;;;;;5032459;28;20044;-80
2023/06/12 14:26:36;;;;;;;4.28;3.88;;;;;;;;;;5042144;28;20055;-81
2023/06/12 14:29:02;;;;;;;8.63;4.82;;;;;;;;;;5032166;28;20064;-79
2023/06/12 14:31:28;;;;;;;8.45;4.18;;;;;;;;;;5031607;28;20095;-80
2023/06/12 14:33:54;;;;;;;5.28;3.90;;;;;;;;;;5032120;28;20036;-80
2023/06/12 14:36:20;;;;;;;5.07;3.72;;;;;;;;;;5031295;28;20438;-79
2023/06/12 14:38:46;;;;;;;5.60;4.15;;;;;;;;;;5024797;28;20030;-77
2023/06/12 14:41:12;;;;;;;4.63;4.22;;;;;;;;;;5032356;28;20502;-80
2023/06/12 14:43:40;;;;;;;4.68;4.15;;;;;;;;;;5030442;28;20094;-79